createdAt,value
2023-03-18T00:00:52.769Z,7.43
2023-03-18T00:03:57.070Z,10.48
2023-03-18T00:07:03.155Z,9.63
2023-03-18T00:10:09.481Z,7.13
2023-03-18T00:13:15.316Z,8.13
2023-03-18T00:16:21.434Z,11.82
2023-03-18T00:19:27.413Z,7.10
2023-03-18T00:22:31.510Z,6.25
2023-03-18T00:25:38.293Z,7.00
2023-03-18T00:28:42.320Z,9.57
2023-03-18T00:31:50.796Z,5.10
2023-03-18T00:34:54.824Z,11.60
2023-03-18T00:38:03.270Z,7.53
2023-03-18T00:41:15.081Z,7.43
2023-03-18T00:44:21.864Z,4.60
2023-03-18T00:47:27.911Z,9.43
2023-03-18T00:50:33.930Z,4.38
2023-03-18T00:53:38.222Z,7.38
2023-03-18T00:56:44.372Z,10.35
2023-03-18T00:59:48.342Z,11.45
2023-03-18T01:02:56.382Z,7.43
2023-03-18T01:06:01.914Z,10.10
2023-03-18T01:09:11.217Z,14.65
2023-03-18T01:12:17.598Z,9.20
2023-03-18T01:15:23.895Z,8.35
2023-03-18T01:18:29.734Z,12.85
2023-03-18T01:21:35.754Z,10.05
2023-03-18T01:24:40.235Z,10.25
2023-03-18T01:27:46.573Z,10.88
2023-03-18T01:30:51.128Z,6.25
2023-03-18T01:34:02.600Z,12.40
2023-03-18T01:37:16.025Z,11.20
2023-03-18T01:40:25.885Z,11.65
2023-03-18T01:43:33.829Z,8.20
2023-03-18T01:46:42.301Z,7.70
2023-03-18T01:49:51.715Z,12.75
2023-03-18T01:53:00.981Z,7.28
2023-03-18T01:56:06.216Z,11.57
2023-03-18T01:59:13.203Z,7.15
2023-03-18T02:02:18.925Z,20.10
2023-03-18T02:05:30.014Z,9.90
2023-03-18T02:08:34.231Z,13.43
2023-03-18T02:11:45.217Z,13.65
2023-03-18T02:14:52.507Z,12.80
2023-03-18T02:18:05.255Z,10.48
2023-03-18T02:21:27.570Z,7.82
2023-03-18T02:24:40.363Z,10.48
2023-03-18T02:27:58.656Z,8.40
2023-03-18T02:31:13.136Z,8.63
2023-03-18T02:34:19.471Z,6.18
2023-03-18T02:37:25.474Z,10.20
2023-03-18T02:40:32.564Z,11.98
2023-03-18T02:43:42.017Z,16.58
2023-03-18T02:46:54.867Z,12.43
2023-03-18T02:50:02.384Z,10.68
2023-03-18T02:53:07.279Z,8.75
2023-03-18T02:56:13.773Z,11.55
2023-03-18T02:59:22.802Z,14.15
2023-03-18T03:02:29.009Z,12.85
2023-03-18T03:05:34.639Z,13.93
2023-03-18T03:08:41.301Z,13.80
2023-03-18T03:11:47.593Z,14.13
2023-03-18T03:15:01.379Z,10.35
2023-03-18T03:18:09.585Z,12.45
2023-03-18T03:21:17.322Z,14.93
2023-03-18T03:24:21.716Z,17.85
2023-03-18T03:27:27.871Z,10.48
2023-03-18T03:30:34.129Z,12.85
2023-03-18T03:33:43.094Z,16.85
2023-03-18T03:36:47.034Z,11.27
2023-03-18T03:39:53.117Z,20.67
2023-03-18T03:42:57.150Z,14.20
2023-03-18T03:46:05.512Z,10.35
2023-03-18T03:49:09.691Z,16.00
2023-03-18T03:52:17.652Z,12.32
2023-03-18T03:55:23.915Z,13.63
2023-03-18T03:58:31.328Z,13.63
2023-03-18T04:04:43.088Z,12.07
2023-03-18T04:07:59.295Z,17.15
2023-03-18T04:11:16.616Z,12.35
2023-03-18T04:14:20.814Z,16.65
2023-03-18T04:17:29.582Z,15.52
2023-03-18T04:20:33.751Z,11.88
2023-03-18T04:23:42.232Z,11.18
2023-03-18T04:26:46.464Z,17.20
2023-03-18T04:29:52.637Z,12.15
2023-03-18T04:33:01.385Z,11.88
2023-03-18T04:36:09.302Z,11.18
2023-03-18T04:39:14.627Z,11.57
2023-03-18T04:42:21.270Z,12.00
2023-03-18T04:45:25.442Z,14.95
2023-03-18T04:48:36.868Z,22.25
2023-03-18T04:51:42.394Z,16.17
2023-03-18T04:54:58.102Z,17.05
2023-03-18T04:58:02.680Z,14.10
2023-03-18T05:01:15.150Z,13.05
2023-03-18T05:04:21.906Z,12.30
2023-03-18T05:07:31.599Z,18.33
2023-03-18T05:10:41.495Z,13.75
2023-03-18T05:13:51.503Z,12.00
2023-03-18T05:16:57.089Z,14.63
2023-03-18T05:20:06.304Z,16.80
2023-03-18T05:23:11.098Z,12.57
2023-03-18T05:26:24.081Z,17.35
2023-03-18T05:29:28.331Z,16.13
2023-03-18T05:32:53.549Z,16.85
2023-03-18T05:36:06.061Z,21.77
2023-03-18T05:39:18.022Z,15.68
2023-03-18T05:45:28.061Z,19.70
2023-03-18T05:48:33.601Z,16.27
2023-03-18T05:51:46.123Z,18.08
2023-03-18T05:54:55.943Z,19.83
2023-03-18T05:58:07.002Z,19.83
2023-03-18T06:01:13.511Z,16.52
2023-03-18T06:04:20.250Z,21.58
2023-03-18T06:07:27.455Z,17.60
2023-03-18T06:10:33.564Z,21.42
2023-03-18T06:13:38.285Z,24.00
2023-03-18T06:16:45.028Z,21.83
2023-03-18T06:19:50.329Z,25.10
2023-03-18T06:22:59.304Z,23.73
2023-03-18T06:26:04.935Z,23.58
2023-03-18T06:29:15.940Z,27.10
2023-03-18T06:32:21.164Z,24.00
2023-03-18T06:35:28.404Z,19.65
2023-03-18T06:38:34.666Z,22.00
2023-03-18T06:41:41.881Z,28.02
2023-03-18T06:45:07.737Z,22.92
2023-03-18T06:48:24.698Z,31.25
2023-03-18T06:51:29.456Z,28.80
2023-03-18T06:54:38.642Z,25.92
2023-03-18T06:57:42.720Z,30.98
2023-03-18T07:00:50.403Z,30.90
2023-03-18T07:04:02.887Z,17.95
2023-03-18T07:07:10.225Z,26.20
2023-03-18T07:10:22.046Z,26.02
2023-03-18T07:16:32.892Z,29.73
2023-03-18T07:19:39.192Z,26.25
2023-03-18T07:22:43.555Z,22.40
2023-03-18T07:25:52.040Z,24.80
2023-03-18T07:28:56.906Z,18.67
2023-03-18T07:32:03.997Z,18.83
2023-03-18T07:35:10.247Z,22.27
2023-03-18T07:38:17.566Z,21.58
2023-03-18T07:41:23.384Z,24.10
2023-03-18T07:44:29.728Z,22.00
2023-03-18T07:47:33.862Z,25.55
2023-03-18T07:50:40.331Z,25.35
2023-03-18T07:53:44.893Z,25.10
2023-03-18T07:56:53.672Z,31.45
2023-03-18T07:59:58.551Z,23.38
2023-03-18T08:03:05.424Z,27.73
2023-03-18T08:06:10.684Z,28.77
2023-03-18T08:09:16.866Z,28.88
2023-03-18T08:12:23.063Z,34.20
2023-03-18T08:15:29.023Z,29.30
2023-03-18T08:21:38.888Z,23.35
2023-03-18T08:24:45.114Z,21.90
2023-03-18T08:27:53.611Z,25.65
2023-03-18T08:30:58.606Z,25.90
2023-03-18T08:34:04.971Z,28.88
2023-03-18T08:37:09.464Z,26.17
2023-03-18T08:40:15.479Z,27.30
2023-03-18T08:43:22.663Z,24.77
2023-03-18T08:46:28.755Z,29.65
2023-03-18T08:49:33.048Z,31.60
2023-03-18T08:52:40.564Z,32.92
2023-03-18T08:55:44.457Z,29.42
2023-03-18T08:58:52.809Z,23.40
2023-03-18T09:01:57.200Z,24.13
2023-03-18T09:05:03.112Z,22.75
2023-03-18T09:08:07.773Z,23.15
2023-03-18T09:11:14.117Z,27.13
2023-03-18T09:14:19.972Z,24.95
2023-03-18T09:17:43.816Z,29.40
2023-03-18T09:20:50.787Z,23.17
2023-03-18T09:23:57.502Z,25.20
2023-03-18T09:27:01.388Z,24.00
2023-03-18T09:30:11.751Z,21.35
2023-03-18T09:33:15.902Z,26.80
2023-03-18T09:36:21.942Z,19.02
2023-03-18T09:39:26.552Z,22.20
2023-03-18T09:42:51.368Z,25.98
2023-03-18T09:46:07.037Z,22.15
2023-03-18T09:49:54.931Z,19.60
2023-03-18T09:53:13.348Z,21.77
2023-03-18T09:56:24.556Z,18.17
2023-03-18T09:59:37.704Z,22.10
2023-03-18T10:02:49.803Z,16.92
2023-03-18T10:05:58.242Z,18.98
2023-03-18T10:09:11.226Z,19.00
2023-03-18T10:12:19.984Z,15.88
2023-03-18T10:15:33.517Z,18.48
2023-03-18T10:18:42.715Z,16.23
2023-03-18T10:21:54.015Z,19.38
2023-03-18T10:25:06.937Z,20.33
2023-03-18T10:28:38.552Z,21.80
2023-03-18T10:31:56.502Z,19.50
2023-03-18T10:35:20.104Z,23.75
2023-03-18T10:38:27.441Z,23.48
2023-03-18T10:41:37.108Z,26.45
2023-03-18T10:44:45.007Z,14.98
2023-03-18T10:48:04.878Z,13.25
2023-03-18T10:51:17.916Z,18.63
2023-03-18T10:54:28.726Z,19.80
2023-03-18T10:57:32.896Z,13.25
2023-03-18T11:00:39.041Z,16.70
2023-03-18T11:03:46.046Z,13.32
2023-03-18T11:06:57.520Z,15.20
2023-03-18T11:10:15.077Z,10.68
2023-03-18T11:13:23.506Z,17.15
2023-03-18T11:16:38.421Z,10.52
2023-03-18T11:19:49.186Z,11.07
2023-03-18T11:22:57.000Z,13.48
2023-03-18T11:26:03.946Z,9.43
2023-03-18T11:29:14.645Z,12.38
2023-03-18T11:32:27.589Z,11.70
2023-03-18T11:35:39.272Z,10.43
2023-03-18T11:38:59.076Z,8.07
2023-03-18T11:42:03.426Z,7.30
2023-03-18T11:45:29.239Z,10.52
2023-03-18T11:48:37.250Z,8.18
2023-03-18T11:51:48.405Z,8.52
2023-03-18T11:55:13.397Z,11.32
2023-03-18T11:58:54.865Z,8.05
2023-03-18T12:02:12.998Z,5.63
2023-03-18T12:05:46.321Z,9.70
2023-03-18T12:09:02.722Z,8.98
2023-03-18T12:12:25.991Z,7.32
2023-03-18T12:15:42.131Z,9.90
2023-03-18T12:18:58.704Z,8.77
2023-03-18T12:22:27.846Z,7.38
2023-03-18T12:25:53.856Z,4.57
2023-03-18T12:29:20.020Z,7.38
2023-03-18T12:32:31.328Z,7.20
2023-03-18T12:35:47.948Z,5.60
2023-03-18T12:39:30.982Z,5.20
2023-03-18T12:42:47.488Z,3.20
2023-03-18T12:46:03.249Z,5.20
2023-03-18T12:49:14.054Z,5.03
2023-03-18T12:52:29.527Z,3.25
2023-03-18T12:55:37.849Z,9.02
2023-03-18T12:58:48.180Z,4.40
2023-03-18T13:02:14.749Z,5.65
2023-03-18T13:05:29.632Z,5.45
2023-03-18T13:08:59.284Z,6.60
2023-03-18T13:12:13.055Z,5.55
2023-03-18T13:15:28.760Z,4.18
2023-03-18T13:18:39.986Z,6.60
2023-03-18T13:21:51.002Z,3.65
2023-03-18T13:25:05.388Z,5.88
2023-03-18T13:28:43.266Z,5.72
2023-03-18T13:31:55.955Z,5.50
2023-03-18T13:35:27.738Z,3.83
2023-03-18T13:38:48.060Z,4.32
2023-03-18T13:42:17.978Z,5.57
2023-03-18T13:45:28.845Z,6.60
2023-03-18T13:48:36.383Z,6.65
2023-03-18T13:51:52.459Z,3.92
2023-03-18T13:55:03.627Z,3.58
2023-03-18T13:58:22.059Z,3.90
2023-03-18T14:01:34.900Z,3.47
2023-03-18T14:04:49.392Z,3.95
2023-03-18T14:07:57.317Z,5.28
2023-03-18T14:11:49.726Z,3.35
2023-03-18T14:15:05.314Z,6.97
2023-03-18T14:18:26.004Z,2.72
2023-03-18T14:21:35.230Z,1.85
2023-03-18T14:24:43.335Z,3.90
2023-03-18T14:27:52.929Z,3.78
2023-03-18T14:31:13.452Z,3.78
2023-03-18T14:34:31.447Z,4.80
2023-03-18T14:37:37.798Z,3.08
2023-03-18T14:40:50.921Z,5.55
2023-03-18T14:44:04.878Z,5.50
2023-03-18T14:47:31.971Z,4.90
2023-03-18T14:50:43.803Z,1.70
2023-03-18T14:53:54.186Z,3.45
2023-03-18T14:57:05.642Z,3.47
2023-03-18T15:00:16.594Z,4.40
2023-03-18T15:03:24.234Z,4.30
2023-03-18T15:06:31.826Z,3.83
2023-03-18T15:09:37.704Z,2.60
2023-03-18T15:12:46.497Z,4.70
2023-03-18T15:15:54.162Z,3.05
2023-03-18T15:19:01.018Z,3.25
2023-03-18T15:22:08.096Z,2.03
2023-03-18T15:25:20.474Z,4.60
2023-03-18T15:28:31.242Z,6.22
2023-03-18T15:31:41.990Z,5.75
2023-03-18T15:34:47.664Z,8.05
2023-03-18T15:38:07.205Z,4.53
2023-03-18T15:41:13.363Z,4.95
2023-03-18T15:44:28.105Z,3.15
2023-03-18T15:47:33.825Z,1.65
2023-03-18T15:50:52.608Z,2.38
2023-03-18T15:53:58.518Z,2.90
2023-03-18T15:57:12.896Z,4.15
2023-03-18T16:00:20.064Z,3.17
2023-03-18T16:03:30.765Z,5.40
2023-03-18T16:06:36.224Z,5.93
2023-03-18T16:09:42.357Z,3.25
2023-03-18T16:12:47.653Z,2.78
2023-03-18T16:15:56.189Z,3.80
2023-03-18T16:19:00.862Z,1.95
2023-03-18T16:22:06.871Z,4.63
2023-03-18T16:28:21.501Z,3.67
2023-03-18T16:31:27.430Z,4.43
2023-03-18T16:34:34.422Z,4.07
2023-03-18T16:37:38.530Z,3.55
2023-03-18T16:40:46.122Z,6.78
2023-03-18T16:43:50.614Z,7.18
2023-03-18T16:46:59.412Z,3.47
2023-03-18T16:50:04.694Z,3.33
2023-03-18T16:53:35.052Z,3.60
2023-03-18T16:56:51.781Z,4.20
2023-03-18T17:00:00.275Z,5.43
2023-03-18T17:03:06.471Z,3.25
2023-03-18T17:06:14.467Z,2.92
2023-03-18T17:09:18.628Z,4.55
2023-03-18T17:12:25.895Z,3.33
2023-03-18T17:15:32.708Z,5.78
2023-03-18T17:18:43.056Z,6.07
2023-03-18T17:21:47.221Z,4.78
2023-03-18T17:24:53.286Z,3.17
2023-03-18T17:27:58.855Z,7.07
2023-03-18T17:31:06.074Z,5.75
2023-03-18T17:34:15.560Z,14.60
2023-03-18T17:37:23.146Z,11.20
2023-03-18T17:40:31.095Z,8.55
2023-03-18T17:43:38.223Z,7.18
2023-03-18T17:46:42.396Z,3.80
2023-03-18T17:49:50.308Z,4.63
2023-03-18T17:52:54.560Z,4.50
2023-03-18T17:56:01.200Z,9.05
2023-03-18T17:59:13.981Z,4.57
2023-03-18T18:02:20.717Z,5.90
2023-03-18T18:05:26.961Z,3.63
2023-03-18T18:08:33.625Z,5.72
2023-03-18T18:11:43.509Z,3.53
2023-03-18T18:14:49.777Z,5.00
2023-03-18T18:17:55.070Z,5.13
2023-03-18T18:21:04.939Z,5.68
2023-03-18T18:24:16.507Z,3.83
2023-03-18T18:27:23.647Z,4.28
2023-03-18T18:30:27.960Z,5.07
2023-03-18T18:33:35.310Z,5.80
2023-03-18T18:36:42.197Z,6.35
2023-03-18T18:39:48.439Z,5.35
2023-03-18T18:42:52.777Z,5.63
2023-03-18T18:45:59.960Z,7.13
2023-03-18T18:49:04.077Z,8.98
2023-03-18T18:52:15.211Z,11.00
2023-03-18T18:55:19.612Z,9.82
2023-03-18T18:58:30.491Z,10.23
2023-03-18T19:01:34.577Z,9.88
2023-03-18T19:04:40.873Z,10.13
2023-03-18T19:07:47.658Z,11.75
2023-03-18T19:10:55.779Z,8.40
2023-03-18T19:14:17.834Z,11.75
2023-03-18T19:17:25.349Z,11.77
2023-03-18T19:20:33.605Z,8.18
2023-03-18T19:23:42.048Z,11.73
2023-03-18T19:26:46.606Z,13.98
2023-03-18T19:29:54.447Z,13.80
2023-03-18T19:33:01.767Z,11.27
2023-03-18T19:36:10.534Z,9.00
2023-03-18T19:39:18.208Z,11.18
2023-03-18T19:42:24.366Z,11.27
2023-03-18T19:45:28.540Z,16.70
2023-03-18T19:48:34.557Z,11.18
2023-03-18T19:51:38.869Z,12.02
2023-03-18T19:54:47.526Z,13.52
2023-03-18T19:57:59.270Z,14.75
2023-03-18T20:01:05.333Z,11.98
2023-03-18T20:07:22.673Z,10.00
2023-03-18T20:10:29.360Z,13.50
2023-03-18T20:13:36.016Z,12.30
2023-03-18T20:16:40.099Z,14.77
2023-03-18T20:19:46.489Z,14.63
2023-03-18T20:22:55.529Z,12.35
2023-03-18T20:26:03.991Z,12.10
2023-03-18T20:29:17.730Z,9.52
2023-03-18T20:32:23.738Z,12.77
2023-03-18T20:35:30.333Z,12.88
2023-03-18T20:38:38.464Z,12.75
2023-03-18T20:41:44.476Z,14.18
2023-03-18T20:44:50.847Z,17.67
2023-03-18T20:47:56.053Z,22.02
2023-03-18T20:51:02.886Z,20.60
2023-03-18T20:54:19.030Z,21.70
2023-03-18T20:57:28.163Z,25.05
2023-03-18T21:00:34.020Z,27.15
2023-03-18T21:03:40.276Z,27.40
2023-03-18T21:06:44.476Z,34.85
2023-03-18T21:09:50.949Z,38.72
2023-03-18T21:12:56.874Z,53.78
2023-03-18T21:16:03.940Z,51.92
2023-03-18T21:19:08.111Z,51.15
2023-03-18T21:22:17.923Z,47.20
2023-03-18T21:25:23.786Z,50.78
2023-03-18T21:28:32.688Z,46.28
2023-03-18T21:31:36.981Z,32.55
2023-03-18T21:34:43.451Z,25.25
2023-03-18T21:37:47.282Z,19.63
2023-03-18T21:40:54.044Z,19.05
2023-03-18T21:44:00.227Z,17.25
2023-03-18T21:47:06.796Z,19.73
2023-03-18T21:50:20.326Z,18.67
2023-03-18T21:53:26.924Z,22.25
2023-03-18T21:56:31.540Z,17.98
2023-03-18T21:59:39.892Z,19.63
2023-03-18T22:02:44.383Z,27.60
2023-03-18T22:05:52.154Z,22.40
2023-03-18T22:08:56.661Z,23.48
2023-03-18T22:12:02.589Z,19.05
2023-03-18T22:18:34.349Z,19.13
2023-03-18T22:21:38.547Z,21.75
2023-03-18T22:24:44.489Z,20.90
2023-03-18T22:30:57.010Z,18.42
2023-03-18T22:34:01.012Z,17.55
2023-03-18T22:37:07.225Z,20.50
2023-03-18T22:43:34.120Z,15.77
2023-03-18T22:46:40.276Z,15.60
2023-03-18T22:49:46.412Z,21.48
2023-03-18T22:52:51.504Z,18.02
2023-03-18T22:55:58.147Z,16.70
2023-03-18T22:59:03.940Z,18.48
2023-03-18T23:02:17.067Z,15.00
2023-03-18T23:05:23.578Z,17.90
2023-03-18T23:08:30.730Z,18.95
2023-03-18T23:11:36.628Z,19.05
2023-03-18T23:14:42.519Z,16.75
2023-03-18T23:17:50.960Z,17.33
2023-03-18T23:20:55.037Z,16.45
2023-03-18T23:24:01.098Z,15.68
2023-03-18T23:27:05.276Z,15.20
2023-03-18T23:30:13.658Z,16.48
2023-03-18T23:33:20.518Z,20.35
2023-03-18T23:36:26.707Z,18.98
2023-03-18T23:39:30.651Z,20.58
2023-03-18T23:42:36.857Z,17.60
2023-03-18T23:45:40.774Z,17.50
2023-03-18T23:48:49.028Z,18.98
2023-03-18T23:51:52.857Z,19.33
2023-03-18T23:54:59.203Z,21.95
2023-03-18T23:58:03.694Z,18.30
